sensor_id;sensor_type;location;lat;lon;timestamp;P1;durP1;ratioP1;P2;durP2;ratioP2
59960;SDS011;55902;-37.980;-63.602;2022-11-12T00:00:56;6.45;;;4.20;;
59960;SDS011;55902;-37.980;-63.602;2022-11-12T00:03:25;8.07;;;3.95;;
59960;SDS011;55902;-37.980;-63.602;2022-11-12T00:05:54;5.97;;;4.28;;
59960;SDS011;55902;-37.980;-63.602;2022-11-12T00:08:20;5.60;;;4.07;;
59960;SDS011;55902;-37.980;-63.602;2022-11-12T00:10:47;7.65;;;5.55;;
59960;SDS011;55902;-37.980;-63.602;2022-11-12T00:13:14;5.72;;;4.57;;
59960;SDS011;55902;-37.980;-63.602;2022-11-12T00:15:42;6.38;;;4.20;;
59960;SDS011;55902;-37.980;-63.602;2022-11-12T00:18:10;19.65;;;8.80;;
59960;SDS011;55902;-37.980;-63.602;2022-11-12T00:20:37;46.10;;;17.88;;
59960;SDS011;55902;-37.980;-63.602;2022-11-12T00:23:05;15.10;;;7.70;;
59960;SDS011;55902;-37.980;-63.602;2022-11-12T00:25:31;8.30;;;5.50;;
59960;SDS011;55902;-37.980;-63.602;2022-11-12T00:28:00;8.35;;;5.65;;
59960;SDS011;55902;-37.980;-63.602;2022-11-12T00:30:28;7.35;;;4.65;;
59960;SDS011;55902;-37.980;-63.602;2022-11-12T00:32:55;5.03;;;4.47;;
59960;SDS011;55902;-37.980;-63.602;2022-11-12T00:35:25;5.70;;;4.57;;
59960;SDS011;55902;-37.980;-63.602;2022-11-12T00:37:53;5.90;;;5.03;;
59960;SDS011;55902;-37.980;-63.602;2022-11-12T00:40:21;7.15;;;4.50;;
59960;SDS011;55902;-37.980;-63.602;2022-11-12T00:42:51;7.25;;;5.35;;
59960;SDS011;55902;-37.980;-63.602;2022-11-12T00:45:19;7.90;;;5.78;;
59960;SDS011;55902;-37.980;-63.602;2022-11-12T00:47:46;7.38;;;5.78;;
59960;SDS011;55902;-37.980;-63.602;2022-11-12T00:50:13;6.00;;;4.82;;
59960;SDS011;55902;-37.980;-63.602;2022-11-12T00:52:42;6.00;;;4.18;;
59960;SDS011;55902;-37.980;-63.602;2022-11-12T00:55:08;7.35;;;5.50;;
59960;SDS011;55902;-37.980;-63.602;2022-11-12T00:57:35;7.50;;;6.15;;
59960;SDS011;55902;-37.980;-63.602;2022-11-12T01:00:05;10.18;;;8.35;;
59960;SDS011;55902;-37.980;-63.602;2022-11-12T01:02:33;10.48;;;8.07;;
59960;SDS011;55902;-37.980;-63.602;2022-11-12T01:05:00;10.50;;;7.88;;
59960;SDS011;55902;-37.980;-63.602;2022-11-12T01:07:27;11.13;;;7.72;;
59960;SDS011;55902;-37.980;-63.602;2022-11-12T01:09:54;8.10;;;6.35;;
59960;SDS011;55902;-37.980;-63.602;2022-11-12T01:12:21;7.57;;;6.25;;
59960;SDS011;55902;-37.980;-63.602;2022-11-12T01:14:48;5.75;;;4.70;;
59960;SDS011;55902;-37.980;-63.602;2022-11-12T01:17:15;6.70;;;5.25;;
59960;SDS011;55902;-37.980;-63.602;2022-11-12T01:19:42;7.40;;;5.03;;
59960;SDS011;55902;-37.980;-63.602;2022-11-12T01:22:09;6.80;;;5.15;;
59960;SDS011;55902;-37.980;-63.602;2022-11-12T01:24:36;6.63;;;4.93;;
59960;SDS011;55902;-37.980;-63.602;2022-11-12T01:27:03;6.70;;;4.47;;
59960;SDS011;55902;-37.980;-63.602;2022-11-12T01:29:30;5.97;;;4.60;;
59960;SDS011;55902;-37.980;-63.602;2022-11-12T01:31:57;6.25;;;4.72;;
59960;SDS011;55902;-37.980;-63.602;2022-11-12T01:34:24;6.05;;;4.57;;
59960;SDS011;55902;-37.980;-63.602;2022-11-12T01:36:51;5.20;;;4.70;;
59960;SDS011;55902;-37.980;-63.602;2022-11-12T01:39:21;7.85;;;5.28;;
59960;SDS011;55902;-37.980;-63.602;2022-11-12T01:41:48;7.35;;;5.47;;
59960;SDS011;55902;-37.980;-63.602;2022-11-12T01:44:20;6.82;;;5.88;;
59960;SDS011;55902;-37.980;-63.602;2022-11-12T01:49:20;8.57;;;5.82;;
59960;SDS011;55902;-37.980;-63.602;2022-11-12T01:52:01;6.25;;;5.57;;
59960;SDS011;55902;-37.980;-63.602;2022-11-12T01:54:42;7.22;;;5.55;;
59960;SDS011;55902;-37.980;-63.602;2022-11-12T01:57:14;7.18;;;5.22;;
59960;SDS011;55902;-37.980;-63.602;2022-11-12T01:59:49;5.95;;;5.00;;
59960;SDS011;55902;-37.980;-63.602;2022-11-12T02:02:19;7.50;;;5.00;;
59960;SDS011;55902;-37.980;-63.602;2022-11-12T02:04:48;7.55;;;5.00;;
59960;SDS011;55902;-37.980;-63.602;2022-11-12T02:07:16;5.65;;;4.70;;
59960;SDS011;55902;-37.980;-63.602;2022-11-12T02:09:46;6.53;;;4.38;;
59960;SDS011;55902;-37.980;-63.602;2022-11-12T02:12:13;6.47;;;4.60;;
59960;SDS011;55902;-37.980;-63.602;2022-11-12T02:14:59;5.47;;;4.10;;
59960;SDS011;55902;-37.980;-63.602;2022-11-12T02:17:27;5.53;;;3.97;;
59960;SDS011;55902;-37.980;-63.602;2022-11-12T02:19:57;6.82;;;4.00;;
59960;SDS011;55902;-37.980;-63.602;2022-11-12T02:22:25;5.15;;;3.85;;
59960;SDS011;55902;-37.980;-63.602;2022-11-12T02:24:52;4.03;;;3.63;;
59960;SDS011;55902;-37.980;-63.602;2022-11-12T02:27:19;4.10;;;3.58;;
59960;SDS011;55902;-37.980;-63.602;2022-11-12T02:29:47;5.63;;;4.15;;
59960;SDS011;55902;-37.980;-63.602;2022-11-12T02:32:14;6.85;;;3.97;;
59960;SDS011;55902;-37.980;-63.602;2022-11-12T02:34:41;4.95;;;4.38;;
59960;SDS011;55902;-37.980;-63.602;2022-11-12T02:37:08;5.25;;;3.45;;
59960;SDS011;55902;-37.980;-63.602;2022-11-12T02:39:35;4.30;;;3.60;;
59960;SDS011;55902;-37.980;-63.602;2022-11-12T02:42:02;4.75;;;3.75;;
59960;SDS011;55902;-37.980;-63.602;2022-11-12T02:44:28;5.05;;;3.92;;
59960;SDS011;55902;-37.980;-63.602;2022-11-12T02:46:56;4.07;;;3.25;;
59960;SDS011;55902;-37.980;-63.602;2022-11-12T02:49:23;4.32;;;3.63;;
59960;SDS011;55902;-37.980;-63.602;2022-11-12T02:51:50;4.20;;;3.80;;
59960;SDS011;55902;-37.980;-63.602;2022-11-12T02:54:17;4.95;;;3.53;;
59960;SDS011;55902;-37.980;-63.602;2022-11-12T02:56:44;5.07;;;3.10;;
59960;SDS011;55902;-37.980;-63.602;2022-11-12T02:59:11;4.03;;;3.28;;
59960;SDS011;55902;-37.980;-63.602;2022-11-12T03:01:38;4.07;;;3.63;;
59960;SDS011;55902;-37.980;-63.602;2022-11-12T03:04:05;4.95;;;3.90;;
59960;SDS011;55902;-37.980;-63.602;2022-11-12T03:06:32;6.93;;;4.18;;
59960;SDS011;55902;-37.980;-63.602;2022-11-12T03:08:59;4.60;;;3.63;;
59960;SDS011;55902;-37.980;-63.602;2022-11-12T03:11:26;4.97;;;3.63;;
59960;SDS011;55902;-37.980;-63.602;2022-11-12T03:13:53;5.38;;;3.20;;
59960;SDS011;55902;-37.980;-63.602;2022-11-12T03:16:20;5.80;;;3.10;;
59960;SDS011;55902;-37.980;-63.602;2022-11-12T03:18:47;4.75;;;2.85;;
59960;SDS011;55902;-37.980;-63.602;2022-11-12T03:21:14;5.10;;;2.88;;
59960;SDS011;55902;-37.980;-63.602;2022-11-12T03:23:40;5.25;;;3.35;;
59960;SDS011;55902;-37.980;-63.602;2022-11-12T03:26:07;6.05;;;2.90;;
59960;SDS011;55902;-37.980;-63.602;2022-11-12T03:28:34;6.78;;;3.28;;
59960;SDS011;55902;-37.980;-63.602;2022-11-12T03:31:01;5.15;;;3.35;;
59960;SDS011;55902;-37.980;-63.602;2022-11-12T03:33:28;5.50;;;3.05;;
59960;SDS011;55902;-37.980;-63.602;2022-11-12T03:35:55;4.82;;;2.85;;
59960;SDS011;55902;-37.980;-63.602;2022-11-12T03:38:22;5.05;;;3.15;;
59960;SDS011;55902;-37.980;-63.602;2022-11-12T03:40:49;4.57;;;3.40;;
59960;SDS011;55902;-37.980;-63.602;2022-11-12T03:43:16;3.38;;;2.85;;
59960;SDS011;55902;-37.980;-63.602;2022-11-12T03:45:43;3.65;;;2.92;;
59960;SDS011;55902;-37.980;-63.602;2022-11-12T03:48:10;5.00;;;3.63;;
59960;SDS011;55902;-37.980;-63.602;2022-11-12T03:50:37;4.38;;;3.40;;
59960;SDS011;55902;-37.980;-63.602;2022-11-12T03:53:04;4.57;;;3.50;;
59960;SDS011;55902;-37.980;-63.602;2022-11-12T03:55:31;7.30;;;4.10;;
59960;SDS011;55902;-37.980;-63.602;2022-11-12T03:57:58;5.95;;;4.00;;
59960;SDS011;55902;-37.980;-63.602;2022-11-12T04:00:28;5.20;;;3.60;;
59960;SDS011;55902;-37.980;-63.602;2022-11-12T04:02:56;6.75;;;3.90;;
59960;SDS011;55902;-37.980;-63.602;2022-11-12T04:05:24;4.80;;;3.78;;
59960;SDS011;55902;-37.980;-63.602;2022-11-12T04:08:13;3.97;;;3.20;;
59960;SDS011;55902;-37.980;-63.602;2022-11-12T04:11:11;5.28;;;3.25;;
59960;SDS011;55902;-37.980;-63.602;2022-11-12T04:17:00;4.28;;;3.60;;
59960;SDS011;55902;-37.980;-63.602;2022-11-12T04:19:45;4.57;;;3.00;;
59960;SDS011;55902;-37.980;-63.602;2022-11-12T04:22:30;5.35;;;2.97;;
59960;SDS011;55902;-37.980;-63.602;2022-11-12T04:24:57;4.68;;;3.17;;
59960;SDS011;55902;-37.980;-63.602;2022-11-12T04:27:42;5.72;;;2.85;;
59960;SDS011;55902;-37.980;-63.602;2022-11-12T04:30:10;3.47;;;2.50;;
59960;SDS011;55902;-37.980;-63.602;2022-11-12T04:32:53;8.07;;;2.72;;
59960;SDS011;55902;-37.980;-63.602;2022-11-12T04:35:25;3.40;;;2.42;;
59960;SDS011;55902;-37.980;-63.602;2022-11-12T04:37:52;4.97;;;2.70;;
59960;SDS011;55902;-37.980;-63.602;2022-11-12T04:40:23;3.83;;;2.65;;
59960;SDS011;55902;-37.980;-63.602;2022-11-12T04:43:10;7.80;;;3.40;;
59960;SDS011;55902;-37.980;-63.602;2022-11-12T04:45:57;5.30;;;2.40;;
59960;SDS011;55902;-37.980;-63.602;2022-11-12T04:48:25;2.90;;;2.30;;
59960;SDS011;55902;-37.980;-63.602;2022-11-12T04:50:53;4.65;;;2.45;;
59960;SDS011;55902;-37.980;-63.602;2022-11-12T04:53:33;4.22;;;2.60;;
59960;SDS011;55902;-37.980;-63.602;2022-11-12T04:56:02;3.92;;;2.30;;
59960;SDS011;55902;-37.980;-63.602;2022-11-12T04:58:29;4.07;;;2.20;;
59960;SDS011;55902;-37.980;-63.602;2022-11-12T05:01:00;5.00;;;2.45;;
59960;SDS011;55902;-37.980;-63.602;2022-11-12T05:03:28;4.13;;;2.50;;
59960;SDS011;55902;-37.980;-63.602;2022-11-12T05:06:01;3.78;;;2.30;;
59960;SDS011;55902;-37.980;-63.602;2022-11-12T05:08:29;5.28;;;2.22;;
59960;SDS011;55902;-37.980;-63.602;2022-11-12T05:10:56;3.47;;;2.15;;
59960;SDS011;55902;-37.980;-63.602;2022-11-12T05:13:23;3.63;;;2.10;;
59960;SDS011;55902;-37.980;-63.602;2022-11-12T05:15:52;3.42;;;2.30;;
59960;SDS011;55902;-37.980;-63.602;2022-11-12T05:18:19;2.78;;;2.22;;
59960;SDS011;55902;-37.980;-63.602;2022-11-12T05:20:46;2.35;;;2.00;;
59960;SDS011;55902;-37.980;-63.602;2022-11-12T05:23:15;3.05;;;2.22;;
59960;SDS011;55902;-37.980;-63.602;2022-11-12T05:25:42;3.78;;;2.10;;
59960;SDS011;55902;-37.980;-63.602;2022-11-12T05:28:09;8.27;;;2.30;;
59960;SDS011;55902;-37.980;-63.602;2022-11-12T05:30:36;4.15;;;2.40;;
59960;SDS011;55902;-37.980;-63.602;2022-11-12T05:33:06;4.15;;;2.30;;
59960;SDS011;55902;-37.980;-63.602;2022-11-12T05:35:35;4.45;;;2.50;;
59960;SDS011;55902;-37.980;-63.602;2022-11-12T05:38:04;4.25;;;2.50;;
59960;SDS011;55902;-37.980;-63.602;2022-11-12T05:40:31;3.53;;;2.10;;
59960;SDS011;55902;-37.980;-63.602;2022-11-12T05:42:58;3.85;;;2.08;;
59960;SDS011;55902;-37.980;-63.602;2022-11-12T05:45:25;3.47;;;2.58;;
59960;SDS011;55902;-37.980;-63.602;2022-11-12T05:47:52;3.08;;;2.10;;
59960;SDS011;55902;-37.980;-63.602;2022-11-12T05:50:19;4.10;;;2.13;;
59960;SDS011;55902;-37.980;-63.602;2022-11-12T05:52:46;5.50;;;2.25;;
59960;SDS011;55902;-37.980;-63.602;2022-11-12T05:55:12;4.38;;;2.50;;
59960;SDS011;55902;-37.980;-63.602;2022-11-12T05:57:39;6.00;;;2.53;;
59960;SDS011;55902;-37.980;-63.602;2022-11-12T06:00:07;4.75;;;2.47;;
59960;SDS011;55902;-37.980;-63.602;2022-11-12T06:02:34;3.90;;;2.42;;
59960;SDS011;55902;-37.980;-63.602;2022-11-12T06:05:01;3.90;;;2.42;;
59960;SDS011;55902;-37.980;-63.602;2022-11-12T06:07:28;3.35;;;2.20;;
59960;SDS011;55902;-37.980;-63.602;2022-11-12T06:09:55;2.75;;;2.33;;
59960;SDS011;55902;-37.980;-63.602;2022-11-12T06:12:22;2.97;;;2.22;;
59960;SDS011;55902;-37.980;-63.602;2022-11-12T06:14:49;3.10;;;2.40;;
59960;SDS011;55902;-37.980;-63.602;2022-11-12T06:17:16;6.72;;;2.83;;
59960;SDS011;55902;-37.980;-63.602;2022-11-12T06:19:43;3.85;;;2.60;;
59960;SDS011;55902;-37.980;-63.602;2022-11-12T06:22:11;3.08;;;2.50;;
59960;SDS011;55902;-37.980;-63.602;2022-11-12T06:24:37;2.58;;;2.20;;
59960;SDS011;55902;-37.980;-63.602;2022-11-12T06:27:06;3.47;;;2.25;;
59960;SDS011;55902;-37.980;-63.602;2022-11-12T06:29:32;3.75;;;2.38;;
59960;SDS011;55902;-37.980;-63.602;2022-11-12T06:31:59;3.08;;;2.35;;
59960;SDS011;55902;-37.980;-63.602;2022-11-12T06:34:26;4.18;;;2.70;;
59960;SDS011;55902;-37.980;-63.602;2022-11-12T06:36:53;4.07;;;2.60;;
59960;SDS011;55902;-37.980;-63.602;2022-11-12T06:39:20;3.65;;;2.35;;
59960;SDS011;55902;-37.980;-63.602;2022-11-12T06:41:47;3.17;;;2.60;;
59960;SDS011;55902;-37.980;-63.602;2022-11-12T06:44:17;3.60;;;2.60;;
59960;SDS011;55902;-37.980;-63.602;2022-11-12T06:46:44;2.30;;;2.00;;
59960;SDS011;55902;-37.980;-63.602;2022-11-12T06:49:11;3.13;;;2.20;;
59960;SDS011;55902;-37.980;-63.602;2022-11-12T06:51:38;4.80;;;2.70;;
59960;SDS011;55902;-37.980;-63.602;2022-11-12T06:54:05;4.55;;;2.90;;
59960;SDS011;55902;-37.980;-63.602;2022-11-12T06:56:32;2.58;;;2.38;;
59960;SDS011;55902;-37.980;-63.602;2022-11-12T06:58:59;3.60;;;2.20;;
59960;SDS011;55902;-37.980;-63.602;2022-11-12T07:01:26;3.03;;;2.38;;
59960;SDS011;55902;-37.980;-63.602;2022-11-12T07:03:53;4.43;;;2.70;;
59960;SDS011;55902;-37.980;-63.602;2022-11-12T07:06:20;4.80;;;2.90;;
59960;SDS011;55902;-37.980;-63.602;2022-11-12T07:08:47;4.88;;;3.03;;
59960;SDS011;55902;-37.980;-63.602;2022-11-12T07:11:17;7.97;;;3.05;;
59960;SDS011;55902;-37.980;-63.602;2022-11-12T07:13:44;4.95;;;3.00;;
59960;SDS011;55902;-37.980;-63.602;2022-11-12T07:16:13;3.35;;;2.40;;
59960;SDS011;55902;-37.980;-63.602;2022-11-12T07:18:43;5.00;;;3.10;;
59960;SDS011;55902;-37.980;-63.602;2022-11-12T07:21:12;3.08;;;2.72;;
59960;SDS011;55902;-37.980;-63.602;2022-11-12T07:23:44;2.83;;;2.50;;
59960;SDS011;55902;-37.980;-63.602;2022-11-12T07:26:19;3.60;;;2.60;;
59960;SDS011;55902;-37.980;-63.602;2022-11-12T07:28:48;3.92;;;2.85;;
59960;SDS011;55902;-37.980;-63.602;2022-11-12T07:31:17;2.67;;;2.30;;
59960;SDS011;55902;-37.980;-63.602;2022-11-12T07:33:45;4.13;;;2.85;;
59960;SDS011;55902;-37.980;-63.602;2022-11-12T07:36:16;4.10;;;2.65;;
59960;SDS011;55902;-37.980;-63.602;2022-11-12T07:38:44;4.30;;;2.60;;
59960;SDS011;55902;-37.980;-63.602;2022-11-12T07:41:19;5.15;;;2.97;;
59960;SDS011;55902;-37.980;-63.602;2022-11-12T07:43:50;3.15;;;2.63;;
59960;SDS011;55902;-37.980;-63.602;2022-11-12T07:46:25;3.05;;;2.55;;
59960;SDS011;55902;-37.980;-63.602;2022-11-12T07:48:54;3.58;;;2.70;;
59960;SDS011;55902;-37.980;-63.602;2022-11-12T07:51:22;3.50;;;2.85;;
59960;SDS011;55902;-37.980;-63.602;2022-11-12T07:53:54;3.70;;;2.80;;
59960;SDS011;55902;-37.980;-63.602;2022-11-12T07:56:24;5.30;;;3.20;;
59960;SDS011;55902;-37.980;-63.602;2022-11-12T07:58:53;4.15;;;3.05;;
59960;SDS011;55902;-37.980;-63.602;2022-11-12T08:01:27;5.65;;;3.10;;
59960;SDS011;55902;-37.980;-63.602;2022-11-12T08:03:58;3.70;;;2.50;;
59960;SDS011;55902;-37.980;-63.602;2022-11-12T08:06:27;3.25;;;2.90;;
59960;SDS011;55902;-37.980;-63.602;2022-11-12T08:08:55;4.82;;;2.88;;
59960;SDS011;55902;-37.980;-63.602;2022-11-12T08:11:24;7.07;;;3.35;;
59960;SDS011;55902;-37.980;-63.602;2022-11-12T08:13:51;5.80;;;3.40;;
59960;SDS011;55902;-37.980;-63.602;2022-11-12T08:16:18;4.03;;;3.20;;
59960;SDS011;55902;-37.980;-63.602;2022-11-12T08:18:46;5.47;;;3.60;;
59960;SDS011;55902;-37.980;-63.602;2022-11-12T08:21:14;3.55;;;2.70;;
59960;SDS011;55902;-37.980;-63.602;2022-11-12T08:23:43;4.55;;;3.08;;
59960;SDS011;55902;-37.980;-63.602;2022-11-12T08:26:11;4.95;;;3.67;;
59960;SDS011;55902;-37.980;-63.602;2022-11-12T08:28:40;5.00;;;3.30;;
59960;SDS011;55902;-37.980;-63.602;2022-11-12T08:31:16;4.57;;;3.63;;
59960;SDS011;55902;-37.980;-63.602;2022-11-12T08:33:45;3.88;;;3.28;;
59960;SDS011;55902;-37.980;-63.602;2022-11-12T08:36:13;4.07;;;3.35;;
59960;SDS011;55902;-37.980;-63.602;2022-11-12T08:38:41;4.22;;;3.60;;
59960;SDS011;55902;-37.980;-63.602;2022-11-12T08:41:09;4.35;;;3.70;;
59960;SDS011;55902;-37.980;-63.602;2022-11-12T08:43:38;3.58;;;2.80;;
59960;SDS011;55902;-37.980;-63.602;2022-11-12T08:46:06;4.00;;;3.47;;
59960;SDS011;55902;-37.980;-63.602;2022-11-12T08:48:33;5.13;;;3.45;;
59960;SDS011;55902;-37.980;-63.602;2022-11-12T08:51:01;4.05;;;3.15;;
59960;SDS011;55902;-37.980;-63.602;2022-11-12T08:53:29;5.18;;;3.60;;
59960;SDS011;55902;-37.980;-63.602;2022-11-12T08:55:59;5.43;;;3.60;;
59960;SDS011;55902;-37.980;-63.602;2022-11-12T08:58:28;4.90;;;3.38;;
59960;SDS011;55902;-37.980;-63.602;2022-11-12T09:00:55;3.63;;;2.60;;
59960;SDS011;55902;-37.980;-63.602;2022-11-12T09:03:28;4.28;;;2.80;;
59960;SDS011;55902;-37.980;-63.602;2022-11-12T09:05:55;3.25;;;2.60;;
59960;SDS011;55902;-37.980;-63.602;2022-11-12T09:08:23;3.53;;;3.05;;
59960;SDS011;55902;-37.980;-63.602;2022-11-12T09:10:50;5.97;;;3.88;;
59960;SDS011;55902;-37.980;-63.602;2022-11-12T09:13:17;4.78;;;3.38;;
59960;SDS011;55902;-37.980;-63.602;2022-11-12T09:15:45;5.95;;;3.63;;
59960;SDS011;55902;-37.980;-63.602;2022-11-12T09:28:18;6.07;;;3.58;;
59960;SDS011;55902;-37.980;-63.602;2022-11-12T09:30:49;8.38;;;4.15;;
59960;SDS011;55902;-37.980;-63.602;2022-11-12T09:33:20;4.32;;;2.90;;
59960;SDS011;55902;-37.980;-63.602;2022-11-12T09:35:50;5.43;;;3.50;;
59960;SDS011;55902;-37.980;-63.602;2022-11-12T09:38:18;5.50;;;3.40;;
59960;SDS011;55902;-37.980;-63.602;2022-11-12T09:40:55;6.22;;;3.50;;
59960;SDS011;55902;-37.980;-63.602;2022-11-12T09:43:34;6.50;;;3.50;;
59960;SDS011;55902;-37.980;-63.602;2022-11-12T09:49:19;4.00;;;3.20;;
59960;SDS011;55902;-37.980;-63.602;2022-11-12T09:52:13;5.15;;;3.20;;
59960;SDS011;55902;-37.980;-63.602;2022-11-12T09:54:47;5.82;;;3.38;;
59960;SDS011;55902;-37.980;-63.602;2022-11-12T09:57:20;5.57;;;3.30;;
59960;SDS011;55902;-37.980;-63.602;2022-11-12T09:59:47;4.32;;;2.60;;
59960;SDS011;55902;-37.980;-63.602;2022-11-12T10:05:06;4.65;;;2.45;;
59960;SDS011;55902;-37.980;-63.602;2022-11-12T10:10:45;2.85;;;2.50;;
59960;SDS011;55902;-37.980;-63.602;2022-11-12T10:14:07;3.30;;;2.42;;
59960;SDS011;55902;-37.980;-63.602;2022-11-12T10:16:42;5.07;;;2.38;;
59960;SDS011;55902;-37.980;-63.602;2022-11-12T10:22:06;3.35;;;2.60;;
59960;SDS011;55902;-37.980;-63.602;2022-11-12T10:24:49;2.83;;;2.40;;
59960;SDS011;55902;-37.980;-63.602;2022-11-12T10:27:22;3.38;;;2.33;;
59960;SDS011;55902;-37.980;-63.602;2022-11-12T10:29:59;4.00;;;2.72;;
59960;SDS011;55902;-37.980;-63.602;2022-11-12T10:32:30;5.10;;;2.53;;
59960;SDS011;55902;-37.980;-63.602;2022-11-12T10:34:59;5.22;;;3.80;;
59960;SDS011;55902;-37.980;-63.602;2022-11-12T10:40:26;5.13;;;3.30;;
59960;SDS011;55902;-37.980;-63.602;2022-11-12T10:42:58;4.75;;;2.90;;
59960;SDS011;55902;-37.980;-63.602;2022-11-12T10:45:26;3.97;;;2.60;;
59960;SDS011;55902;-37.980;-63.602;2022-11-12T10:47:53;4.47;;;2.30;;
59960;SDS011;55902;-37.980;-63.602;2022-11-12T10:50:31;2.83;;;2.30;;
59960;SDS011;55902;-37.980;-63.602;2022-11-12T10:53:10;4.32;;;2.30;;
59960;SDS011;55902;-37.980;-63.602;2022-11-12T10:55:53;4.22;;;2.47;;
59960;SDS011;55902;-37.980;-63.602;2022-11-12T10:58:24;3.10;;;2.53;;
59960;SDS011;55902;-37.980;-63.602;2022-11-12T11:03:23;6.75;;;2.80;;
59960;SDS011;55902;-37.980;-63.602;2022-11-12T11:08:41;4.82;;;2.70;;
59960;SDS011;55902;-37.980;-63.602;2022-11-12T11:11:20;3.20;;;2.70;;
59960;SDS011;55902;-37.980;-63.602;2022-11-12T11:13:52;3.65;;;2.70;;
59960;SDS011;55902;-37.980;-63.602;2022-11-12T11:16:25;4.45;;;2.83;;
59960;SDS011;55902;-37.980;-63.602;2022-11-12T11:57:22;2.97;;;2.40;;
59960;SDS011;55902;-37.980;-63.602;2022-11-12T12:05:16;4.68;;;2.83;;
59960;SDS011;55902;-37.980;-63.602;2022-11-12T12:08:03;3.95;;;2.35;;
59960;SDS011;55902;-37.980;-63.602;2022-11-12T12:18:57;4.05;;;2.75;;
59960;SDS011;55902;-37.980;-63.602;2022-11-12T12:21:27;4.65;;;2.47;;
59960;SDS011;55902;-37.980;-63.602;2022-11-12T12:26:36;3.15;;;2.60;;
59960;SDS011;55902;-37.980;-63.602;2022-11-12T12:37:19;3.38;;;2.53;;
59960;SDS011;55902;-37.980;-63.602;2022-11-12T12:40:13;3.92;;;2.70;;
59960;SDS011;55902;-37.980;-63.602;2022-11-12T12:42:45;4.05;;;2.90;;
59960;SDS011;55902;-37.980;-63.602;2022-11-12T12:45:43;3.00;;;2.60;;
59960;SDS011;55902;-37.980;-63.602;2022-11-12T12:48:53;4.57;;;2.60;;
59960;SDS011;55902;-37.980;-63.602;2022-11-12T12:51:06;4.65;;;3.35;;
59960;SDS011;55902;-37.980;-63.602;2022-11-12T12:53:34;2.95;;;2.30;;
59960;SDS011;55902;-37.980;-63.602;2022-11-12T12:56:03;2.80;;;2.40;;
59960;SDS011;55902;-37.980;-63.602;2022-11-12T12:58:39;2.70;;;2.40;;
59960;SDS011;55902;-37.980;-63.602;2022-11-12T13:04:08;4.55;;;2.95;;
59960;SDS011;55902;-37.980;-63.602;2022-11-12T13:17:09;2.80;;;2.60;;
59960;SDS011;55902;-37.980;-63.602;2022-11-12T13:37:50;4.68;;;3.08;;
59960;SDS011;55902;-37.980;-63.602;2022-11-12T13:42:55;3.65;;;2.70;;
59960;SDS011;55902;-37.980;-63.602;2022-11-12T13:45:45;4.45;;;3.17;;
59960;SDS011;55902;-37.980;-63.602;2022-11-12T13:51:16;5.50;;;2.30;;
59960;SDS011;55902;-37.980;-63.602;2022-11-12T13:53:52;4.10;;;2.65;;
59960;SDS011;55902;-37.980;-63.602;2022-11-12T13:56:30;2.75;;;2.30;;
59960;SDS011;55902;-37.980;-63.602;2022-11-12T13:59:15;3.40;;;2.78;;
59960;SDS011;55902;-37.980;-63.602;2022-11-12T14:01:44;4.68;;;2.53;;
59960;SDS011;55902;-37.980;-63.602;2022-11-12T14:04:13;2.55;;;2.10;;
59960;SDS011;55902;-37.980;-63.602;2022-11-12T14:06:43;2.53;;;2.20;;
59960;SDS011;55902;-37.980;-63.602;2022-11-12T14:15:22;2.50;;;2.03;;
59960;SDS011;55902;-37.980;-63.602;2022-11-12T14:20:35;3.13;;;2.08;;
59960;SDS011;55902;-37.980;-63.602;2022-11-12T14:23:15;9.43;;;2.30;;
59960;SDS011;55902;-37.980;-63.602;2022-11-12T14:25:46;3.15;;;1.60;;
59960;SDS011;55902;-37.980;-63.602;2022-11-12T14:31:12;2.60;;;1.45;;
59960;SDS011;55902;-37.980;-63.602;2022-11-12T14:33:40;4.97;;;1.88;;
59960;SDS011;55902;-37.980;-63.602;2022-11-12T14:36:11;2.35;;;1.80;;
59960;SDS011;55902;-37.980;-63.602;2022-11-12T14:38:50;2.80;;;2.10;;
59960;SDS011;55902;-37.980;-63.602;2022-11-12T14:41:21;2.20;;;1.70;;
59960;SDS011;55902;-37.980;-63.602;2022-11-12T14:43:52;1.90;;;1.35;;
59960;SDS011;55902;-37.980;-63.602;2022-11-12T14:46:32;1.52;;;1.40;;
59960;SDS011;55902;-37.980;-63.602;2022-11-12T14:51:47;2.33;;;1.40;;
59960;SDS011;55902;-37.980;-63.602;2022-11-12T14:54:29;3.75;;;1.52;;
59960;SDS011;55902;-37.980;-63.602;2022-11-12T14:57:05;1.92;;;1.50;;
59960;SDS011;55902;-37.980;-63.602;2022-11-12T14:59:36;2.70;;;1.50;;
59960;SDS011;55902;-37.980;-63.602;2022-11-12T15:04:39;4.33;;;1.70;;
59960;SDS011;55902;-37.980;-63.602;2022-11-12T15:07:23;2.67;;;1.60;;
59960;SDS011;55902;-37.980;-63.602;2022-11-12T15:09:57;2.42;;;1.70;;
59960;SDS011;55902;-37.980;-63.602;2022-11-12T15:12:28;2.15;;;1.60;;
59960;SDS011;55902;-37.980;-63.602;2022-11-12T15:15:08;3.42;;;1.80;;
59960;SDS011;55902;-37.980;-63.602;2022-11-12T15:17:54;2.47;;;1.80;;
59960;SDS011;55902;-37.980;-63.602;2022-11-12T15:20:26;2.35;;;1.70;;
59960;SDS011;55902;-37.980;-63.602;2022-11-12T15:22:53;4.57;;;2.20;;
59960;SDS011;55902;-37.980;-63.602;2022-11-12T15:25:21;1.92;;;1.40;;
59960;SDS011;55902;-37.980;-63.602;2022-11-12T15:27:54;3.10;;;1.70;;
59960;SDS011;55902;-37.980;-63.602;2022-11-12T15:30:36;2.80;;;1.50;;
59960;SDS011;55902;-37.980;-63.602;2022-11-12T15:33:21;1.65;;;1.40;;
59960;SDS011;55902;-37.980;-63.602;2022-11-12T15:35:54;2.50;;;2.00;;
59960;SDS011;55902;-37.980;-63.602;2022-11-12T15:38:24;2.03;;;1.50;;
59960;SDS011;55902;-37.980;-63.602;2022-11-12T15:41:02;2.97;;;1.50;;
59960;SDS011;55902;-37.980;-63.602;2022-11-12T15:43:36;3.83;;;1.85;;
59960;SDS011;55902;-37.980;-63.602;2022-11-12T15:46:11;3.40;;;1.63;;
59960;SDS011;55902;-37.980;-63.602;2022-11-12T15:48:42;1.58;;;1.23;;
59960;SDS011;55902;-37.980;-63.602;2022-11-12T15:51:11;3.05;;;1.63;;
59960;SDS011;55902;-37.980;-63.602;2022-11-12T15:53:41;1.88;;;1.40;;
59960;SDS011;55902;-37.980;-63.602;2022-11-12T15:56:10;3.35;;;1.40;;
59960;SDS011;55902;-37.980;-63.602;2022-11-12T15:58:40;1.65;;;1.25;;
59960;SDS011;55902;-37.980;-63.602;2022-11-12T16:01:09;2.45;;;1.40;;
59960;SDS011;55902;-37.980;-63.602;2022-11-12T16:03:37;1.70;;;1.30;;
59960;SDS011;55902;-37.980;-63.602;2022-11-12T16:06:04;1.73;;;1.38;;
59960;SDS011;55902;-37.980;-63.602;2022-11-12T16:08:31;2.03;;;1.10;;
59960;SDS011;55902;-37.980;-63.602;2022-11-12T16:10:58;1.88;;;1.27;;
59960;SDS011;55902;-37.980;-63.602;2022-11-12T16:13:29;1.35;;;1.00;;
59960;SDS011;55902;-37.980;-63.602;2022-11-12T16:15:57;1.40;;;1.00;;
59960;SDS011;55902;-37.980;-63.602;2022-11-12T16:18:32;1.50;;;1.10;;
59960;SDS011;55902;-37.980;-63.602;2022-11-12T16:20:59;2.50;;;1.20;;
59960;SDS011;55902;-37.980;-63.602;2022-11-12T16:23:26;3.20;;;1.13;;
59960;SDS011;55902;-37.980;-63.602;2022-11-12T16:25:55;1.48;;;1.00;;
59960;SDS011;55902;-37.980;-63.602;2022-11-12T16:28:22;2.20;;;1.40;;
59960;SDS011;55902;-37.980;-63.602;2022-11-12T16:30:49;4.13;;;2.30;;
59960;SDS011;55902;-37.980;-63.602;2022-11-12T16:33:16;1.70;;;1.10;;
59960;SDS011;55902;-37.980;-63.602;2022-11-12T16:35:43;1.83;;;1.08;;
59960;SDS011;55902;-37.980;-63.602;2022-11-12T16:38:14;2.45;;;1.60;;
59960;SDS011;55902;-37.980;-63.602;2022-11-12T16:40:42;1.83;;;1.00;;
59960;SDS011;55902;-37.980;-63.602;2022-11-12T16:43:10;1.90;;;1.30;;
59960;SDS011;55902;-37.980;-63.602;2022-11-12T16:45:39;2.72;;;1.15;;
59960;SDS011;55902;-37.980;-63.602;2022-11-12T16:48:18;2.80;;;1.30;;
59960;SDS011;55902;-37.980;-63.602;2022-11-12T16:50:46;2.55;;;1.15;;
59960;SDS011;55902;-37.980;-63.602;2022-11-12T16:53:15;1.58;;;1.02;;
59960;SDS011;55902;-37.980;-63.602;2022-11-12T16:55:45;1.80;;;1.20;;
59960;SDS011;55902;-37.980;-63.602;2022-11-12T16:58:13;1.75;;;1.10;;
59960;SDS011;55902;-37.980;-63.602;2022-11-12T17:00:40;1.40;;;0.90;;